Time;durP1;ratioP1;P1;durP2;ratioP2;P2;SDS_P1;SDS_P2;PMS_P1;PMS_P2;Temp;Humidity;BMP_temperature;BMP_pressure;BME280_temperature;BME280_humidity;BME280_pressure;Samples;Min_cycle;Max_cycle;Signal;HPM_P1;HPM_P2
2024/02/04 00:00:18;;;;;;;0.10;0.10;;;;;;;10.75;71.73;101869.44;7362929;19;20010;-64
2024/02/04 00:02:43;;;;;;;0.03;0.03;;;;;;;10.76;71.86;101885.13;7357318;19;20465;-64
2024/02/04 00:05:09;;;;;;;0.10;0.10;;;;;;;10.56;71.58;101851.25;7361140;19;20010;-64
2024/02/04 00:07:34;;;;;;;0.10;0.10;;;;;;;10.63;71.49;101863.38;7361268;19;20022;-64
2024/02/04 00:10:00;;;;;;;0.10;0.10;;;;;;;10.78;71.26;101878.13;7361208;19;20007;-64
2024/02/04 00:12:26;;;;;;;0.10;0.10;;;;;;;10.72;71.33;101856.38;7362520;19;20015;-64
2024/02/04 00:14:52;;;;;;;0.10;0.10;;;;;;;10.79;71.37;101871.16;7360614;19;20013;-64
2024/02/04 00:17:17;;;;;;;0.10;0.10;;;;;;;10.77;71.64;101867.69;7361667;19;20781;-64
2024/02/04 00:19:43;;;;;;;0.10;0.10;;;;;;;10.73;71.34;101850.28;7364728;19;20450;-64
2024/02/04 00:22:08;;;;;;;0.10;0.10;;;;;;;10.82;71.47;101852.84;7366707;19;20978;-64
2024/02/04 00:24:34;;;;;;;0.10;0.10;;;;;;;10.75;71.11;101840.72;7360080;19;20017;-64
2024/02/04 00:26:59;;;;;;;0.10;0.10;;;;;;;10.79;70.94;101858.09;7359844;19;20011;-64
2024/02/04 00:29:24;;;;;;;0.10;0.10;;;;;;;10.79;70.74;101866.78;7360789;19;20018;-64
2024/02/04 00:31:50;;;;;;;0.10;0.10;;;;;;;10.75;70.75;101866.84;7361543;19;20021;-65
2024/02/04 00:34:16;;;;;;;0.10;0.10;;;;;;;10.74;71.05;101865.06;7360000;19;20478;-64
2024/02/04 00:36:41;;;;;;;0.10;0.10;;;;;;;10.79;70.98;101873.75;7364503;19;20015;-64
2024/02/04 00:39:07;;;;;;;0.10;0.10;;;;;;;10.77;70.97;101892.06;7365972;19;20010;-65
2024/02/04 00:41:33;;;;;;;0.10;0.10;;;;;;;10.57;70.89;101855.59;7361346;19;20013;-64
2024/02/04 00:43:59;;;;;;;0.10;0.10;;;;;;;10.77;71.26;101875.53;7362364;19;20468;-64
2024/02/04 00:46:25;;;;;;;0.10;0.10;;;;;;;10.64;71.24;101859.91;7364157;19;20010;-64
2024/02/04 00:48:50;;;;;;;0.10;0.10;;;;;;;10.49;71.48;101839.09;7360823;19;20049;-64
2024/02/04 00:51:17;;;;;;;0.17;0.17;;;;;;;10.58;71.73;101849.47;7364761;19;20794;-64
2024/02/04 00:53:43;;;;;;;0.08;0.08;;;;;;;10.77;71.67;101871.16;7366750;19;20072;-64
2024/02/04 00:56:09;;;;;;;0.10;0.10;;;;;;;10.67;71.56;101852.94;7359371;19;20462;-64
2024/02/04 00:58:35;;;;;;;0.10;0.10;;;;;;;10.67;71.81;101852.94;7361886;19;20014;-64
2024/02/04 01:01:00;;;;;;;0.20;0.20;;;;;;;10.74;71.82;101852.00;7360538;19;20010;-64
2024/02/04 01:03:26;;;;;;;0.10;0.10;;;;;;;10.67;71.88;101847.72;7359154;19;20032;-64
2024/02/04 01:05:51;;;;;;;0.10;0.10;;;;;;;10.71;72.14;101863.38;7358967;19;20654;-64
2024/02/04 01:08:17;;;;;;;0.10;0.10;;;;;;;10.74;72.10;101862.47;7358855;19;20490;-64
2024/02/04 01:10:42;;;;;;;0.10;0.10;;;;;;;10.76;71.90;101859.00;7366024;19;20101;-64
2024/02/04 01:13:08;;;;;;;0.10;0.10;;;;;;;10.76;72.06;101858.13;7365705;19;20051;-64
2024/02/04 01:15:33;;;;;;;0.00;0.00;;;;;;;10.72;72.34;101849.41;7357358;19;20390;-64
2024/02/04 01:17:58;;;;;;;0.10;0.10;;;;;;;10.60;72.09;101826.84;7359275;19;20011;-64
2024/02/04 01:20:24;;;;;;;0.10;0.10;;;;;;;10.57;72.11;101821.63;7359364;19;20018;-65
2024/02/04 01:22:49;;;;;;;0.10;0.10;;;;;;;10.71;72.31;101836.38;7356390;19;20015;-64
2024/02/04 01:25:15;;;;;;;0.10;0.10;;;;;;;10.73;72.11;101838.09;7358873;19;20010;-64
2024/02/04 01:27:40;;;;;;;0.10;0.10;;;;;;;10.34;72.20;101766.91;7359021;19;20360;-64
2024/02/04 01:30:06;;;;;;;0.10;0.10;;;;;;;10.72;72.35;101838.97;7357724;19;20018;-64
2024/02/04 01:32:31;;;;;;;0.10;0.10;;;;;;;10.73;72.51;101842.44;7360176;19;20351;-64
2024/02/04 01:34:57;;;;;;;0.10;0.10;;;;;;;10.68;72.18;101823.31;7362217;19;20010;-64
2024/02/04 01:37:23;;;;;;;0.10;0.10;;;;;;;10.71;72.69;101821.56;7372781;19;20014;-65
2024/02/04 01:39:48;;;;;;;0.17;0.17;;;;;;;10.68;72.32;101813.72;7374838;19;20085;-64
2024/02/04 01:42:14;;;;;;;0.10;0.10;;;;;;;10.54;72.31;101795.53;7372909;19;20702;-64
2024/02/04 01:44:39;;;;;;;0.10;0.10;;;;;;;10.71;72.45;101812.88;7374852;19;20011;-64
2024/02/04 01:47:05;;;;;;;0.10;0.10;;;;;;;10.69;72.30;101814.59;7370618;19;20014;-64
2024/02/04 01:49:30;;;;;;;0.10;0.10;;;;;;;10.57;72.33;101803.34;7365081;19;20074;-64
2024/02/04 01:51:56;;;;;;;0.10;0.10;;;;;;;10.68;72.54;101807.63;7367366;19;21371;-64
2024/02/04 01:54:24;;;;;;;0.10;0.10;;;;;;;10.57;72.41;101790.28;7369655;19;20105;-64
2024/02/04 01:56:52;;;;;;;0.10;0.10;;;;;;;10.68;72.59;101812.88;7371651;19;20505;-64
2024/02/04 01:59:19;;;;;;;0.10;0.10;;;;;;;10.68;72.50;101812.88;7366044;19;20355;-65
2024/02/04 02:01:46;;;;;;;0.10;0.10;;;;;;;10.60;72.62;101798.13;7369879;19;20019;-64
2024/02/04 02:04:12;;;;;;;0.10;0.10;;;;;;;10.67;72.39;101785.00;7367845;19;20343;-64
2024/02/04 02:06:41;;;;;;;0.10;0.10;;;;;;;10.67;72.48;101785.00;7365386;19;20021;-64
2024/02/04 02:09:10;;;;;;;0.10;0.10;;;;;;;10.55;72.71;101757.22;7365109;19;20018;-64
2024/02/04 02:11:46;;;;;;;0.10;0.10;;;;;;;10.72;72.77;101783.25;7367695;19;20053;-65
2024/02/04 02:14:15;;;;;;;0.10;0.10;;;;;;;10.71;72.87;101781.50;7368058;19;20864;-64
2024/02/04 02:16:42;;;;;;;0.10;0.10;;;;;;;10.63;72.56;101769.34;7364262;19;20103;-65
2024/02/04 02:19:31;;;;;;;0.10;0.10;;;;;;;10.69;72.19;101778.88;7365272;19;20037;-64
2024/02/04 02:22:03;;;;;;;0.10;0.10;;;;;;;10.68;72.77;101784.13;7364459;19;21101;-64
2024/02/04 02:24:41;;;;;;;0.10;0.10;;;;;;;10.68;72.66;101776.28;7361938;19;20011;-65
2024/02/04 02:27:06;;;;;;;0.10;0.10;;;;;;;10.50;72.92;101752.03;7364895;19;20022;-64
2024/02/04 02:29:32;;;;;;;0.10;0.10;;;;;;;10.65;73.17;101771.97;7366923;19;20090;-64
2024/02/04 02:31:59;;;;;;;0.10;0.10;;;;;;;10.62;73.03;101767.63;7366016;19;20394;-64
2024/02/04 02:34:25;;;;;;;0.10;0.10;;;;;;;10.66;73.04;101765.88;7365622;19;20037;-64
2024/02/04 02:36:59;;;;;;;0.10;0.10;;;;;;;10.62;72.96;101762.41;7364916;19;20015;-64
2024/02/04 02:39:30;;;;;;;0.10;0.10;;;;;;;10.65;72.83;101758.91;7366527;19;20033;-64
2024/02/04 02:41:59;;;;;;;0.10;0.10;;;;;;;10.67;73.15;101764.97;7365702;19;20019;-64
2024/02/04 02:44:28;;;;;;;0.10;0.10;;;;;;;10.69;73.32;101767.56;7365627;19;20015;-64
2024/02/04 02:46:58;;;;;;;0.10;0.10;;;;;;;10.69;73.03;101773.66;7367144;19;20014;-64
2024/02/04 02:49:23;;;;;;;0.10;0.10;;;;;;;10.57;73.52;101752.84;7365961;19;20348;-64
2024/02/04 02:51:49;;;;;;;0.10;0.10;;;;;;;10.69;73.24;101772.78;7364362;19;20041;-64
2024/02/04 02:54:14;;;;;;;0.10;0.10;;;;;;;10.68;73.47;101766.72;7370709;19;20756;-64
2024/02/04 02:56:40;;;;;;;0.00;0.00;;;;;;;10.70;73.07;101759.75;7373228;19;20544;-64
2024/02/04 02:59:05;;;;;;;0.10;0.10;;;;;;;10.75;73.53;101767.56;7361543;19;20015;-64
2024/02/04 03:01:31;;;;;;;0.10;0.10;;;;;;;10.71;73.61;101744.94;7362821;19;20018;-64
2024/02/04 03:03:56;;;;;;;0.10;0.10;;;;;;;10.77;73.18;101732.69;7362041;19;20036;-64
2024/02/04 03:06:22;;;;;;;0.10;0.10;;;;;;;10.67;73.44;101717.09;7364578;19;20017;-64
2024/02/04 03:08:47;;;;;;;0.10;0.10;;;;;;;10.79;73.35;101735.28;7363103;19;20652;-64
2024/02/04 03:11:13;;;;;;;0.10;0.10;;;;;;;10.81;73.43;101746.63;7364223;19;20615;-64
2024/02/04 03:13:39;;;;;;;0.10;0.10;;;;;;;10.82;73.22;101745.72;7364075;19;20010;-64
2024/02/04 03:16:10;;;;;;;0.10;0.10;;;;;;;10.85;73.24;101743.97;7364090;19;20787;-64
2024/02/04 03:18:39;;;;;;;0.10;0.10;;;;;;;10.84;73.58;101723.91;7366091;19;20015;-64
2024/02/04 03:21:04;;;;;;;0.10;0.10;;;;;;;10.86;73.24;101744.84;7364527;19;20010;-64
2024/02/04 03:23:30;;;;;;;0.10;0.10;;;;;;;10.88;73.16;101727.38;7366441;19;20059;-64
2024/02/04 03:25:55;;;;;;;0.10;0.10;;;;;;;10.87;73.34;101725.66;7367202;19;20011;-64
2024/02/04 03:28:20;;;;;;;0.10;0.10;;;;;;;10.88;73.04;101716.94;7361399;19;20011;-64
2024/02/04 03:30:46;;;;;;;0.10;0.10;;;;;;;10.91;73.34;101711.69;7361988;19;20051;-64
2024/02/04 03:33:11;;;;;;;0.03;0.03;;;;;;;10.93;73.39;101709.94;7363844;19;20011;-65
2024/02/04 03:35:37;;;;;;;0.10;0.10;;;;;;;10.90;73.50;101699.50;7363550;19;20007;-64
2024/02/04 03:38:02;;;;;;;0.10;0.10;;;;;;;10.92;73.52;101705.59;7363432;19;20033;-64
2024/02/04 03:40:28;;;;;;;0.10;0.10;;;;;;;10.63;73.12;101675.31;7364672;19;20018;-65
2024/02/04 03:42:53;;;;;;;0.10;0.10;;;;;;;10.81;73.09;101705.66;7362806;19;20014;-64
2024/02/04 03:45:19;;;;;;;0.10;0.10;;;;;;;10.97;73.28;101716.88;7363136;19;20545;-64
2024/02/04 03:47:45;;;;;;;0.10;0.10;;;;;;;10.92;73.59;101702.97;7364272;19;20033;-64
2024/02/04 03:50:10;;;;;;;0.10;0.10;;;;;;;10.86;73.44;101672.53;7367993;19;20018;-64
2024/02/04 03:52:36;;;;;;;0.10;0.10;;;;;;;11.00;73.44;101690.72;7364747;19;20505;-65
2024/02/04 03:55:01;;;;;;;0.10;0.10;;;;;;;11.00;73.32;101685.50;7364944;19;20375;-64
2024/02/04 03:57:26;;;;;;;0.10;0.10;;;;;;;11.00;73.17;101703.78;7359114;19;20798;-64
2024/02/04 03:59:52;;;;;;;0.10;0.10;;;;;;;11.00;73.08;101685.50;7361684;19;20021;-64
2024/02/04 04:02:17;;;;;;;0.10;0.10;;;;;;;10.94;73.38;101677.69;7361990;19;20668;-64
2024/02/04 04:04:47;;;;;;;0.10;0.10;;;;;;;10.99;73.06;101686.34;7362005;19;20011;-64
2024/02/04 04:07:12;;;;;;;0.10;0.10;;;;;;;10.95;73.18;101670.69;7365301;19;20885;-64
2024/02/04 04:09:38;;;;;;;0.10;0.10;;;;;;;10.92;73.24;101666.38;7363212;19;20038;-64
2024/02/04 04:12:03;;;;;;;0.10;0.10;;;;;;;10.97;72.95;101672.44;7364559;19;20011;-65
2024/02/04 04:14:29;;;;;;;0.10;0.10;;;;;;;10.97;73.07;101679.41;7362144;19;20117;-64
2024/02/04 04:16:54;;;;;;;0.10;0.10;;;;;;;10.96;73.22;101678.56;7355271;19;20010;-64
2024/02/04 04:19:20;;;;;;;0.10;0.10;;;;;;;10.95;73.33;101661.16;7361798;19;20010;-64
2024/02/04 04:21:45;;;;;;;0.10;0.10;;;;;;;10.95;73.38;101655.91;7361866;19;20002;-64
2024/02/04 04:24:10;;;;;;;0.10;0.10;;;;;;;10.96;72.87;101673.31;7360786;19;20497;-65
2024/02/04 04:26:36;;;;;;;0.03;0.03;;;;;;;10.95;73.43;101660.25;7362471;19;20055;-64
2024/02/04 04:29:02;;;;;;;0.10;0.10;;;;;;;10.93;73.06;101668.13;7362027;19;20066;-64
2024/02/04 04:31:28;;;;;;;0.10;0.10;;;;;;;10.94;72.85;101664.63;7361030;19;20015;-64
2024/02/04 04:33:54;;;;;;;0.10;0.10;;;;;;;10.93;73.02;101672.47;7362986;19;20007;-64
2024/02/04 04:36:19;;;;;;;0.10;0.10;;;;;;;10.93;73.20;101667.25;7359558;19;20022;-64
2024/02/04 04:38:45;;;;;;;0.10;0.10;;;;;;;10.94;73.32;101677.69;7363734;19;20458;-65
2024/02/04 04:41:10;;;;;;;0.10;0.10;;;;;;;10.95;73.29;101676.81;7363067;19;20037;-64
2024/02/04 04:43:38;;;;;;;0.08;0.08;;;;;;;10.99;73.45;101668.06;7360843;19;20029;-64
2024/02/04 04:46:04;;;;;;;0.10;0.10;;;;;;;10.98;73.25;101666.31;7362251;19;20019;-64
2024/02/04 04:48:29;;;;;;;0.10;0.10;;;;;;;11.00;73.36;101667.19;7362469;19;20035;-64
2024/02/04 04:50:55;;;;;;;0.10;0.10;;;;;;;11.01;73.08;101663.69;7361757;19;20816;-64
2024/02/04 04:53:20;;;;;;;0.10;0.10;;;;;;;10.98;73.07;101661.09;7362251;19;20010;-64
2024/02/04 04:55:45;;;;;;;0.10;0.10;;;;;;;11.01;73.15;101660.22;7368850;19;20081;-64
2024/02/04 04:58:11;;;;;;;0.10;0.10;;;;;;;11.06;73.41;101659.28;7362178;19;20037;-64
2024/02/04 05:00:36;;;;;;;0.10;0.10;;;;;;;10.94;73.32;101643.72;7362300;19;20749;-64
2024/02/04 05:03:02;;;;;;;0.10;0.10;;;;;;;11.08;73.08;101649.69;7362279;19;20415;-64
2024/02/04 05:05:27;;;;;;;0.10;0.10;;;;;;;11.04;73.03;101637.50;7361110;19;20827;-64
2024/02/04 05:07:52;;;;;;;0.10;0.10;;;;;;;11.07;73.05;101634.03;7360810;19;20011;-64
2024/02/04 05:10:18;;;;;;;0.10;0.10;;;;;;;11.00;73.09;101621.88;7362869;19;20376;-64
2024/02/04 05:12:43;;;;;;;0.10;0.10;;;;;;;11.05;72.76;101630.53;7362572;19;20707;-65
2024/02/04 05:15:09;;;;;;;0.10;0.10;;;;;;;10.97;72.83;101617.56;7360743;19;20116;-64
2024/02/04 05:17:35;;;;;;;0.10;0.10;;;;;;;11.02;73.20;101631.44;7361261;19;20020;-64
2024/02/04 05:20:01;;;;;;;0.10;0.10;;;;;;;10.84;73.09;101608.94;7360858;19;20016;-64
2024/02/04 05:22:27;;;;;;;0.10;0.10;;;;;;;10.96;72.95;101636.75;7360095;19;20015;-64
2024/02/04 05:24:52;;;;;;;0.10;0.10;;;;;;;10.91;72.95;101620.22;7358525;19;20121;-65
2024/02/04 05:27:18;;;;;;;0.15;0.15;;;;;;;10.91;72.89;101628.06;7361158;19;20006;-64
2024/02/04 05:29:43;;;;;;;0.10;0.10;;;;;;;10.91;73.28;101635.91;7359759;19;20017;-64
2024/02/04 05:32:09;;;;;;;0.10;0.10;;;;;;;10.87;73.41;101628.97;7360484;19;20022;-64
2024/02/04 05:34:34;;;;;;;0.10;0.10;;;;;;;10.87;73.40;101636.81;7359982;19;20006;-64
2024/02/04 05:37:00;;;;;;;0.10;0.10;;;;;;;10.88;73.32;101638.53;7360316;19;20816;-64
2024/02/04 05:39:25;;;;;;;0.10;0.10;;;;;;;10.76;73.54;101618.63;7361635;19;20007;-64
2024/02/04 05:41:51;;;;;;;0.10;0.10;;;;;;;10.90;73.29;101634.19;7360683;19;20470;-64
2024/02/04 05:44:16;;;;;;;0.10;0.10;;;;;;;10.80;73.19;101609.03;7360685;19;20010;-64
2024/02/04 05:46:41;;;;;;;0.10;0.10;;;;;;;10.94;73.72;101630.63;7360996;19;20046;-64
2024/02/04 05:49:07;;;;;;;0.10;0.10;;;;;;;10.95;73.25;101611.50;7359926;19;20002;-64
2024/02/04 05:51:37;;;;;;;0.10;0.10;;;;;;;10.90;73.40;101605.44;7362551;19;20335;-64
2024/02/04 05:54:02;;;;;;;0.10;0.10;;;;;;;11.00;73.63;101608.81;7360187;19;20511;-64
2024/02/04 05:56:28;;;;;;;0.10;0.10;;;;;;;10.89;73.44;101588.88;7360608;19;20015;-64
2024/02/04 05:58:53;;;;;;;0.10;0.10;;;;;;;11.04;73.63;101608.75;7357186;19;20006;-64
2024/02/04 06:01:19;;;;;;;0.10;0.10;;;;;;;11.08;73.45;101600.00;7360256;19;20006;-64
2024/02/04 06:03:44;;;;;;;0.05;0.05;;;;;;;11.09;73.75;101593.03;7357560;19;20021;-65
2024/02/04 06:06:19;;;;;;;0.10;0.10;;;;;;;11.15;73.33;101596.47;7363269;19;20029;-64
2024/02/04 06:08:45;;;;;;;0.10;0.10;;;;;;;11.15;73.64;101593.84;7367245;19;20014;-64
2024/02/04 06:11:12;;;;;;;0.10;0.10;;;;;;;11.16;73.65;101589.50;7362469;19;20493;-64
2024/02/04 06:13:40;;;;;;;0.10;0.10;;;;;;;11.18;73.42;101587.72;7361175;19;20007;-64
2024/02/04 06:16:05;;;;;;;;;;;;;;;11.26;72.85;101587.66;7362611;19;20635;-65
2024/02/04 06:18:30;;;;;;;0.10;0.10;;;;;;;11.25;73.49;101571.06;7362035;19;19919;-64
2024/02/04 06:20:56;;;;;;;0.10;0.10;;;;;;;11.25;73.11;101565.84;7369330;19;20030;-64
2024/02/04 06:23:21;;;;;;;0.10;0.10;;;;;;;11.25;73.53;101562.34;7372889;19;20026;-64
2024/02/04 06:25:47;;;;;;;0.10;0.10;;;;;;;11.27;73.63;101573.69;7374194;19;20523;-64
2024/02/04 06:28:13;;;;;;;0.10;0.10;;;;;;;11.28;73.43;101567.56;7366768;19;20085;-64
2024/02/04 06:30:38;;;;;;;0.10;0.10;;;;;;;11.24;73.45;101552.78;7365806;19;20010;-64
2024/02/04 06:33:04;;;;;;;0.10;0.10;;;;;;;11.31;73.63;101557.06;7366844;19;20038;-64
2024/02/04 06:35:29;;;;;;;0.10;0.10;;;;;;;11.32;73.48;101556.19;7365124;19;20027;-64
2024/02/04 06:37:55;;;;;;;0.10;0.10;;;;;;;11.33;73.42;101552.69;7365135;19;20070;-64
2024/02/04 06:40:20;;;;;;;0.10;0.10;;;;;;;11.24;73.44;101532.72;7366479;19;20037;-64
2024/02/04 06:42:46;;;;;;;0.10;0.10;;;;;;;11.36;73.77;101540.44;7364566;19;20017;-64
2024/02/04 06:45:11;;;;;;;0.10;0.10;;;;;;;11.39;73.49;101537.78;7367023;19;20877;-64
2024/02/04 06:47:36;;;;;;;0.10;0.10;;;;;;;11.39;73.65;101521.22;7366110;19;20010;-64
2024/02/04 06:50:05;;;;;;;0.10;0.10;;;;;;;11.38;73.56;101509.91;7369660;19;20018;-64
2024/02/04 06:52:31;;;;;;;0.00;0.00;;;;;;;11.44;73.56;101519.41;7363820;19;20110;-64
2024/02/04 06:54:56;;;;;;;0.10;0.10;;;;;;;11.41;73.43;101498.53;7365478;19;20760;-64
2024/02/04 06:57:22;;;;;;;0.10;0.10;;;;;;;11.47;73.40;101516.75;7363694;19;20466;-64
2024/02/04 06:59:47;;;;;;;0.10;0.10;;;;;;;11.42;73.66;101503.75;7369318;19;20011;-64
2024/02/04 07:02:12;;;;;;;0.00;0.00;;;;;;;11.52;73.35;101506.25;7365750;19;20466;-64
2024/02/04 07:04:38;;;;;;;0.10;0.10;;;;;;;11.53;73.37;101506.22;7365108;19;20041;-64
2024/02/04 07:07:03;;;;;;;0.10;0.10;;;;;;;11.48;73.28;101504.56;7365304;19;20010;-64
2024/02/04 07:09:29;;;;;;;0.10;0.10;;;;;;;11.56;73.26;101503.56;7363162;19;20017;-64
2024/02/04 07:11:54;;;;;;;0.10;0.10;;;;;;;11.50;73.74;101498.41;7364962;19;20029;-64
2024/02/04 07:14:19;;;;;;;0.10;0.10;;;;;;;11.54;73.38;101494.84;7361717;19;20018;-64
2024/02/04 07:16:45;;;;;;;0.10;0.10;;;;;;;11.61;73.70;101506.13;7363202;19;20007;-64
2024/02/04 07:19:10;;;;;;;0.10;0.10;;;;;;;11.64;73.23;101521.75;7363542;19;20014;-64
2024/02/04 07:21:36;;;;;;;0.10;0.10;;;;;;;11.56;73.32;101481.78;7364410;19;20795;-64
2024/02/04 07:24:02;;;;;;;0.10;0.10;;;;;;;11.67;73.51;101495.56;7362852;19;20014;-64
2024/02/04 07:26:28;;;;;;;0.10;0.10;;;;;;;11.68;73.41;101500.75;7362593;19;19998;-64
2024/02/04 07:28:53;;;;;;;0.10;0.10;;;;;;;11.72;73.67;101498.13;7363122;19;20029;-64
2024/02/04 07:31:19;;;;;;;0.10;0.10;;;;;;;11.66;73.25;101497.31;7363017;19;20014;-64
2024/02/04 07:33:44;;;;;;;0.10;0.10;;;;;;;11.73;73.58;101489.38;7363357;19;20014;-64
2024/02/04 07:36:10;;;;;;;0.10;0.10;;;;;;;11.72;73.79;101472.81;7363175;19;20710;-64
2024/02/04 07:38:36;;;;;;;0.10;0.10;;;;;;;11.71;73.72;101465.84;7367632;19;20014;-64
2024/02/04 07:41:01;;;;;;;0.10;0.10;;;;;;;11.80;73.93;101480.53;7369916;19;20006;-64
2024/02/04 07:43:27;;;;;;;0.10;0.10;;;;;;;11.81;73.99;101475.28;7361681;19;20021;-64
2024/02/04 07:45:53;;;;;;;0.10;0.10;;;;;;;11.53;73.83;101414.66;7360907;19;20384;-64
2024/02/04 07:48:19;;;;;;;0.10;0.10;;;;;;;11.84;73.78;101456.94;7363065;19;20533;-64
2024/02/04 07:50:45;;;;;;;0.20;0.20;;;;;;;11.86;73.60;101459.53;7363386;19;20033;-64
2024/02/04 07:53:11;;;;;;;0.10;0.10;;;;;;;11.89;73.92;101449.03;7366483;19;20070;-64
2024/02/04 07:55:36;;;;;;;0.10;0.10;;;;;;;11.89;73.96;101449.03;7364460;19;20949;-64
2024/02/04 07:58:02;;;;;;;0.10;0.10;;;;;;;11.93;73.86;101441.09;7363069;19;20074;-64
2024/02/04 08:00:27;;;;;;;0.10;0.10;;;;;;;11.69;73.71;101405.69;7362362;19;20093;-64
2024/02/04 08:02:55;;;;;;;0.10;0.10;;;;;;;11.94;73.90;101452.44;7363255;19;20026;-64
2024/02/04 08:05:20;;;;;;;;;;;;;;;12.06;73.12;101446.97;7362349;19;21018;-64
2024/02/04 08:07:45;;;;;;;0.10;0.10;;;;;;;12.03;73.86;101441.81;7358727;19;19922;-64
2024/02/04 08:10:11;;;;;;;0.10;0.10;;;;;;;12.07;73.33;101442.63;7360261;19;20007;-64
2024/02/04 08:12:37;;;;;;;0.10;0.10;;;;;;;12.01;73.44;101404.31;7360763;19;20019;-67
2024/02/04 08:15:03;;;;;;;0.10;0.10;;;;;;;12.07;73.70;101422.56;7361050;19;20025;-64
2024/02/04 08:17:30;;;;;;;0.10;0.10;;;;;;;12.10;74.16;101425.09;7361136;19;20435;-64
2024/02/04 08:19:58;;;;;;;0.10;0.10;;;;;;;12.00;73.81;101394.72;7362121;19;20006;-64
2024/02/04 08:22:24;;;;;;;0.10;0.10;;;;;;;12.00;73.65;101394.72;7361058;19;20014;-65
2024/02/04 08:24:50;;;;;;;0.10;0.10;;;;;;;12.17;73.78;101413.66;7359921;19;20006;-64
2024/02/04 08:27:17;;;;;;;0.10;0.10;;;;;;;12.18;74.33;101415.38;7367013;19;20018;-64
2024/02/04 08:29:43;;;;;;;0.10;0.10;;;;;;;12.25;74.17;101410.00;7361192;19;20788;-64
2024/02/04 08:32:09;;;;;;;0.17;0.17;;;;;;;12.28;74.31;101389.88;7361048;19;20014;-64
2024/02/04 08:34:35;;;;;;;0.10;0.10;;;;;;;12.31;74.37;101394.19;7363474;19;20010;-64
2024/02/04 08:37:00;;;;;;;0.10;0.10;;;;;;;12.33;74.46;101398.50;7361078;19;20005;-64
2024/02/04 08:39:26;;;;;;;0.10;0.10;;;;;;;12.38;74.21;101375.72;7362088;19;20011;-64
2024/02/04 08:41:52;;;;;;;0.10;0.10;;;;;;;12.42;73.97;101382.63;7359728;19;20003;-64
2024/02/04 08:44:17;;;;;;;0.10;0.10;;;;;;;12.48;74.35;101397.34;7364868;19;20821;-64
2024/02/04 08:46:42;;;;;;;0.10;0.10;;;;;;;12.44;74.22;101377.34;7361443;19;20011;-64
2024/02/04 08:49:08;;;;;;;0.10;0.10;;;;;;;12.57;74.16;101385.81;7362107;19;20036;-64
2024/02/04 08:51:33;;;;;;;0.10;0.10;;;;;;;12.46;74.12;101383.41;7361059;19;20006;-64
2024/02/04 08:53:59;;;;;;;0.10;0.10;;;;;;;12.65;74.16;101369.06;7361275;19;20022;-64
2024/02/04 08:56:24;;;;;;;0.10;0.10;;;;;;;12.68;74.52;101361.13;7360631;19;20121;-64
2024/02/04 08:58:50;;;;;;;0.10;0.10;;;;;;;12.70;74.49;101363.72;7362003;19;20075;-64
2024/02/04 09:01:15;;;;;;;0.10;0.10;;;;;;;12.63;74.08;101360.38;7360944;19;20006;-64
2024/02/04 09:03:41;;;;;;;0.10;0.10;;;;;;;12.71;73.96;101358.44;7361513;19;20018;-64
2024/02/04 09:06:06;;;;;;;0.10;0.10;;;;;;;12.64;73.97;101338.50;7361320;19;20464;-64
2024/02/04 09:08:31;;;;;;;0.10;0.10;;;;;;;12.80;74.20;101367.00;7361334;19;20010;-64
2024/02/04 09:10:57;;;;;;;0.10;0.10;;;;;;;12.76;74.39;101360.09;7361856;19;20006;-64
2024/02/04 09:13:22;;;;;;;0.10;0.10;;;;;;;12.79;74.56;101316.34;7358873;19;20015;-64
2024/02/04 09:15:50;;;;;;;0.10;0.10;;;;;;;12.86;74.62;101356.38;7359330;19;20002;-64
2024/02/04 09:18:15;;;;;;;0.10;0.10;;;;;;;12.93;74.51;101358.84;7359953;19;20419;-64
2024/02/04 09:20:41;;;;;;;0.00;0.00;;;;;;;12.85;74.29;101324.06;7360331;19;20027;-64
2024/02/04 09:23:06;;;;;;;0.10;0.10;;;;;;;13.04;74.39;101340.25;7359228;19;19994;-64
2024/02/04 09:25:31;;;;;;;0.10;0.10;;;;;;;12.98;74.48;101340.41;7361094;19;20029;-64
2024/02/04 09:27:57;;;;;;;0.10;0.10;;;;;;;13.16;74.13;101313.75;7359966;19;20007;-64
2024/02/04 09:30:22;;;;;;;0.10;0.10;;;;;;;13.15;74.20;101332.16;7359882;19;20761;-64
2024/02/04 09:32:48;;;;;;;0.10;0.10;;;;;;;13.17;74.31;101328.56;7363196;19;20013;-64
2024/02/04 09:35:13;;;;;;;0.10;0.10;;;;;;;13.31;74.42;101351.03;7360602;19;20014;-64
2024/02/04 09:37:39;;;;;;;0.10;0.10;;;;;;;13.33;74.20;101346.59;7359152;19;20002;-64
2024/02/04 09:40:05;;;;;;;0.10;0.10;;;;;;;13.31;73.88;101358.91;7359764;19;20022;-64
2024/02/04 09:42:31;;;;;;;0.10;0.10;;;;;;;13.40;73.83;101348.19;7358637;19;20003;-64
2024/02/04 09:44:57;;;;;;;0.10;0.10;;;;;;;13.47;74.05;101360.25;7359729;19;20019;-64
2024/02/04 09:47:23;;;;;;;0.10;0.10;;;;;;;13.48;74.20;101359.34;7358479;19;20024;-64
2024/02/04 09:49:48;;;;;;;0.10;0.10;;;;;;;13.50;73.73;101370.69;7359930;19;20002;-64
2024/02/04 09:52:21;;;;;;;0.10;0.10;;;;;;;13.56;73.78;101360.03;7360285;19;19999;-64
2024/02/04 09:54:56;;;;;;;0.10;0.10;;;;;;;13.60;73.60;101355.59;7360412;19;20442;-64
2024/02/04 09:57:22;;;;;;;0.10;0.10;;;;;;;13.59;73.49;101356.50;7366274;19;20007;-64
2024/02/04 09:59:48;;;;;;;0.10;0.10;;;;;;;13.62;73.63;101359.88;7367661;19;20030;-64
2024/02/04 10:02:13;;;;;;;0.10;0.10;;;;;;;13.62;73.89;101366.91;7371998;19;19999;-64
2024/02/04 10:04:39;;;;;;;0.10;0.10;;;;;;;13.69;73.53;101347.50;7366657;19;20018;-64
2024/02/04 10:07:04;;;;;;;0.13;0.13;;;;;;;13.61;73.93;101358.16;7365318;19;20033;-64
2024/02/04 10:09:30;;;;;;;0.20;0.20;;;;;;;13.68;73.45;101370.22;7365728;19;20035;-64
2024/02/04 10:11:56;;;;;;;0.10;0.10;;;;;;;13.69;73.40;101345.72;7365907;19;20086;-64
2024/02/04 10:14:22;;;;;;;0.10;0.10;;;;;;;13.55;74.06;101357.47;7366030;19;20019;-64
2024/02/04 10:16:47;;;;;;;0.10;0.10;;;;;;;13.47;73.86;101355.00;7366496;19;20874;-64
2024/02/04 10:19:13;;;;;;;0.10;0.10;;;;;;;13.67;74.08;101378.16;7366385;19;20007;-64
2024/02/04 10:21:38;;;;;;;0.20;0.20;;;;;;;13.69;74.22;101390.34;7365063;19;20401;-64
2024/02/04 10:24:06;;;;;;;0.10;0.10;;;;;;;13.72;74.29;101371.88;7363018;19;20015;-64
2024/02/04 10:26:33;;;;;;;;;;;;;;;13.80;73.56;101373.47;7367618;19;20984;-64
2024/02/04 10:28:59;;;;;;;0.10;0.10;;;;;;;13.76;74.17;101381.41;7365517;19;19941;-64
2024/02/04 10:31:26;;;;;;;0.15;0.15;;;;;;;13.77;74.08;101356.88;7360909;19;20023;-64
2024/02/04 10:33:52;;;;;;;0.10;0.10;;;;;;;13.82;73.92;101387.41;7365912;19;20016;-64
2024/02/04 10:36:17;;;;;;;0.10;0.10;;;;;;;13.83;74.10;101384.72;7363471;19;20015;-64
2024/02/04 10:38:43;;;;;;;0.10;0.10;;;;;;;13.71;74.25;101354.41;7371110;19;20014;-64
2024/02/04 10:41:16;;;;;;;0.10;0.10;;;;;;;13.94;74.52;101389.75;7373663;19;20018;-64
2024/02/04 10:43:43;;;;;;;0.10;0.10;;;;;;;14.01;74.58;101372.91;7364760;19;20114;-64
2024/02/04 10:46:19;;;;;;;0.10;0.10;;;;;;;14.11;74.53;101379.66;7365247;19;20021;-64
2024/02/04 10:48:51;;;;;;;0.10;0.10;;;;;;;14.13;74.50;101367.31;7366634;19;20042;-64
2024/02/04 10:51:21;;;;;;;0.10;0.10;;;;;;;14.16;73.79;101369.88;7362378;19;20785;-64
2024/02/04 10:53:46;;;;;;;0.10;0.10;;;;;;;14.28;74.04;101395.81;7363178;19;20440;-64
2024/02/04 10:56:32;;;;;;;0.10;0.10;;;;;;;14.38;73.33;101395.56;7363607;19;20010;-64
2024/02/04 10:59:00;;;;;;;0.10;0.10;;;;;;;14.29;73.48;101373.03;7364819;19;20085;-64
2024/02/04 11:01:26;;;;;;;0.10;0.10;;;;;;;14.38;73.46;101398.19;7364197;19;20032;-64
2024/02/04 11:03:53;;;;;;;0.10;0.10;;;;;;;14.41;73.52;101391.09;7363070;19;20900;-64
2024/02/04 11:06:20;;;;;;;0.20;0.20;;;;;;;14.43;73.52;101401.56;7362701;19;20717;-64
2024/02/04 11:08:46;;;;;;;0.10;0.10;;;;;;;14.44;73.38;101393.63;7365466;19;20038;-64
2024/02/04 11:11:11;;;;;;;0.10;0.10;;;;;;;14.47;73.64;101387.44;7364334;19;20015;-64
2024/02/04 11:13:41;;;;;;;0.10;0.10;;;;;;;14.54;73.53;101379.34;7365859;19;20022;-64
2024/02/04 11:16:15;;;;;;;0.10;0.10;;;;;;;14.60;73.42;101412.50;7364114;19;20014;-64
2024/02/04 11:19:01;;;;;;;0.10;0.10;;;;;;;14.66;73.18;101417.59;7359643;19;20017;-64
2024/02/04 11:21:54;;;;;;;0.10;0.10;;;;;;;14.65;73.07;101402.72;7363124;19;20079;-64